首页
METAR-TAF:

METAR-TAF

机场 :

科尔马, 法国

纬度: 48-06-37N, 经度: 7-21-33E, 海拔: 191米

当前天气观测

该预报发布于28分钟前的21:00 UTC
风速9节,风向
温度 14°C
湿度 88%
气压 1006 hPa
能见度10公里或以上

METAR: LFGA 062100Z AUTO 19009KT 9999 ///TCU 14/12 Q1006

时间: 23:28 (21:28 UTC)


TAF: 丢失

超过4000个机场的气象观测和天气预报(METAR&TAF报告)。

可查询的气象台以黄色和红色小点在地图上表示。

将鼠标移到小点上方,可查看气象台名称。

然后点击查看天气观测和预报。

如需切换地图:点击带黑十字的绿色按钮放大地图;点击带横线的绿色按钮缩小地图;或者点击绿色箭头查看邻近地区的地图。


METAR-TAF: